Strona główna
METAR-TAF:

METAR-TAF

Lotnisko :

Port lotniczy Rijeka

Rijeka, Chorwacja

Szerokość geograficzna: 45-13N, Długość geograficzna: 014-35E, wysokość: 85 m

Aktualna obserwacja pogody

Raport powstał 46 minut temu, godzina 11:30 UTC
Wiatr 5 kt od zachód, zmienny między południowo-południowy zachód i północno-północny zachód
Temperatura 13°C
Wilgotność 38%
Ciśnienie 1014 hPa
Widzialność 10 km lub więcej
Brak chmur poniżej 1500 m i brak chmur cumulonimbus

METAR: LDRI 031130Z 26005KT 200V330 CAVOK 13/M01 Q1014

czas: 14:16 (12:16 UTC)

Prognoza

Raport powstał 24 godziny i 51 minut temu, godzina 11:25 UTC
Prognoza ważna od 02 godzina 12 UTC do 03 godzina 12 UTC
Wiatr 2 kt z kierunków zmiennych
Widzialność 10 km lub więcej
Brak chmur poniżej 1500 m i brak chmur cumulonimbus
Przejściowo
od 02 godzina 12 UTC do 02 godzina 18 UTC
Wiatr 8 kt od zachód
Przejściowo
od 03 godzina 10 UTC do 03 godzina 12 UTC
Wiatr 8 kt od zachód

TAF: LDRI 021125Z 0212/0312 VRB02KT CAVOK TX14/0213Z TN02/0303Z TEMPO 0212/0218 28008KT TEMPO 0310/0312 28008KT

Obserwacja i prognoza pogody dla ponad 4000 lotnisk (raport METAR i TAF).

Dostępne stacje oznaczono żółtymi i czerwonymi punktami na mapie.

Najedź kursorem aby zobaczyć nazwę stacji.

Kliknij aby zobaczyć obserwacje i prognozy pogody.

Aby zmienić mapę: kliknij na zielony przycisk z czarnym krzyżykiem, aby powiększyć; na zielony przycisk z myślnikiem, aby pomniejszyć; na zielone strzałki, aby przejść do map sąsiednich.


METAR-TAF: